Latest Weather Observations for Lord Howe Island Windy Point

IDN60801

Issued at 10:32 am EST Sunday 19 April 2015 (issued every 30 minutes, with the page automatically refreshed every 10 minutes)

About weather observations | Map of weather stations | Latest weather observations for NSW | Other Formats
Station Details ID: 200715 Name: LORD HOWE ISLAND WINDY POINT Lat: -31.54 Lon: 159.07 Height: 4.0 m
Data from the previous 72 hours. | See also: Recent months for locations in New South Wales
Date/Time
EST
Temp
°C
App
Temp
°C
Dew
Point
Rel
Hum
%
Delta-T
°C
Wind Press
QNH
hPa
Press
MSL
hPa
Rain
since 9 am
mm
Dir
 
Spd
km/h
Gust
km/h
Spd
kts
Gust
kts
19/10:30am - - - - - N 11 24 6 13 - - -
19/10:00am - - - - - NNW 15 28 8 15 - - -
19/09:30am - - - - - N 11 20 6 11 - - -
19/09:00am - - - - - NNE 11 20 6 11 - - -
19/08:30am - - - - - NNE 13 26 7 14 - - -
19/08:00am - - - - - NNE 15 26 8 14 - - -
19/07:30am - - - - - NNE 15 24 8 13 - - -
19/07:00am - - - - - NNE 9 22 5 12 - - -
19/06:30am - - - - - N 9 24 5 13 - - -
19/06:00am - - - - - NNE 13 24 7 13 - - -
19/05:30am - - - - - NE 11 17 6 9 - - -
19/05:00am - - - - - NE 6 13 3 7 - - -
19/04:30am - - - - - NNE 7 13 4 7 - - -
19/04:00am - - - - - N 6 20 3 11 - - -
19/03:30am - - - - - ESE 7 17 4 9 - - -
19/03:00am - - - - - NE 7 15 4 8 - - -
19/02:30am - - - - - NE 11 19 6 10 - - -
19/02:00am - - - - - NE 9 22 5 12 - - -
19/01:30am - - - - - NNE 13 20 7 11 - - -
19/01:00am - - - - - NNE 11 19 6 10 - - -
19/12:30am - - - - - NE 11 20 6 11 - - -
19/12:00am - - - - - NNE 11 22 6 12 - - -
 
Date/Time
EST
Temp
°C
App
Temp
°C
Dew
Point
Rel
Hum
%
Delta-T
°C
Wind Press
QNH
hPa
Press
MSL
hPa
Rain
since 9 am
mm
Dir
 
Spd
km/h
Gust
km/h
Spd
kts
Gust
kts
18/11:30pm - - - - - NNE 13 20 7 11 - - -
18/11:00pm - - - - - NNE 17 26 9 14 - - -
18/10:30pm - - - - - NNE 15 26 8 14 - - -
18/10:00pm - - - - - NNE 11 20 6 11 - - -
18/09:30pm - - - - - NNE 15 22 8 12 - - -
18/09:00pm - - - - - NE 13 24 7 13 - - -
18/08:30pm - - - - - NNE 13 17 7 9 - - -
18/08:00pm - - - - - NE 13 26 7 14 - - -
18/07:30pm - - - - - NNE 13 20 7 11 - - -
18/07:00pm - - - - - NNE 13 24 7 13 - - -
18/06:30pm - - - - - NE 11 20 6 11 - - -
18/06:00pm - - - - - NNE 13 19 7 10 - - -
18/05:30pm - - - - - NNE 11 19 6 10 - - -
18/05:00pm - - - - - NNE 7 13 4 7 - - -
18/04:30pm - - - - - NNE 9 17 5 9 - - -
18/04:00pm - - - - - NNE 9 17 5 9 - - -
18/03:30pm - - - - - N 11 15 6 8 - - -
18/03:00pm - - - - - N 7 15 4 8 - - -
18/02:30pm - - - - - NE 11 17 6 9 - - -
18/02:00pm - - - - - N 13 20 7 11 - - -
18/01:30pm - - - - - N 13 22 7 12 - - -
18/01:00pm - - - - - N 11 22 6 12 - - -
18/12:30pm - - - - - N 13 19 7 10 - - -
18/12:00pm - - - - - N 13 22 7 12 - - -
18/11:30am - - - - - N 15 22 8 12 - - -
18/11:00am - - - - - N 13 19 7 10 - - -
18/10:30am - - - - - NNE 11 17 6 9 - - -
18/10:00am - - - - - N 15 19 8 10 - - -
18/09:30am - - - - - NNW 9 15 5 8 - - -
18/09:00am - - - - - N 11 19 6 10 - - -
18/08:30am - - - - - N 11 19 6 10 - - -
18/08:00am - - - - - NW 4 11 2 6 - - -
18/07:30am - - - - - NNE 9 13 5 7 - - -
18/07:00am - - - - - NNE 6 11 3 6 - - -
18/06:30am - - - - - N 6 7 3 4 - - -
18/06:00am - - - - - NNE 7 7 4 4 - - -
18/05:30am - - - - - N 6 7 3 4 - - -
18/05:00am - - - - - N 6 7 3 4 - - -
18/04:30am - - - - - N 7 9 4 5 - - -
18/04:00am - - - - - CALM 0 0 0 0 - - -
18/03:30am - - - - - CALM 0 0 0 0 - - -
18/03:00am - - - - - N 6 7 3 4 - - -
18/02:30am - - - - - CALM 0 0 0 0 - - -
18/02:00am - - - - - NNW 2 7 1 4 - - -
18/01:30am - - - - - N 2 7 1 4 - - -
18/01:00am - - - - - N 4 9 2 5 - - -
18/12:30am - - - - - N 4 9 2 5 - - -
18/12:00am - - - - - CALM 0 0 0 0 - - -
 
Date/Time
EST
Temp
°C
App
Temp
°C
Dew
Point
Rel
Hum
%
Delta-T
°C
Wind Press
QNH
hPa
Press
MSL
hPa
Rain
since 9 am
mm
Dir
 
Spd
km/h
Gust
km/h
Spd
kts
Gust
kts
17/11:30pm - - - - - CALM 0 0 0 0 - - -
17/11:00pm - - - - - CALM 0 0 0 0 - - -
17/10:30pm - - - - - CALM 0 0 0 0 - - -
17/10:00pm - - - - - N 2 7 1 4 - - -
17/09:30pm - - - - - N 6 7 3 4 - - -
17/09:00pm - - - - - N 6 11 3 6 - - -
17/08:30pm - - - - - N 9 11 5 6 - - -
17/08:00pm - - - - - CALM 0 0 0 0 - - -
17/07:30pm - - - - - N 6 7 3 4 - - -
17/07:00pm - - - - - CALM 0 0 0 0 - - -
17/06:30pm - - - - - CALM 0 0 0 0 - - -
17/06:00pm - - - - - N 6 7 3 4 - - -
17/05:30pm - - - - - N 6 7 3 4 - - -
17/05:00pm - - - - - NNW 9 13 5 7 - - -
17/04:30pm - - - - - WNW 9 13 5 7 - - -
17/04:00pm - - - - - WNW 11 17 6 9 - - -
17/03:30pm - - - - - NW 9 15 5 8 - - -
17/03:00pm - - - - - NW 13 19 7 10 - - -
17/02:30pm - - - - - WNW 15 20 8 11 - - -
17/02:00pm - - - - - WNW 15 19 8 10 - - -
17/01:30pm - - - - - WNW 17 20 9 11 - - -
17/01:00pm - - - - - NW 20 24 11 13 - - -
17/12:30pm - - - - - WNW 17 20 9 11 - - -
17/12:00pm - - - - - WNW 15 24 8 13 - - -
17/11:30am - - - - - NW 15 24 8 13 - - -
17/11:00am - - - - - N 13 20 7 11 - - -
17/10:30am - - - - - N 13 19 7 10 - - -
17/10:00am - - - - - NW 11 20 6 11 - - -
17/09:30am - - - - - NW 9 15 5 8 - - -
17/09:00am - - - - - NW 6 9 3 5 - - -
17/08:30am - - - - - NNW 4 9 2 5 - - -
17/08:00am - - - - - NNW 9 13 5 7 - - -
17/07:30am - - - - - N 4 7 2 4 - - -
17/07:00am - - - - - NNE 2 7 1 4 - - -
17/06:30am - - - - - NE 6 7 3 4 - - -
17/06:00am - - - - - N 4 7 2 4 - - -
17/05:30am - - - - - CALM 0 4 0 2 - - -
17/05:00am - - - - - N 6 11 3 6 - - -
17/04:30am - - - - - N 6 9 3 5 - - -
17/04:00am - - - - - N 7 9 4 5 - - -
17/03:30am - - - - - N 7 11 4 6 - - -
17/03:00am - - - - - N 7 9 4 5 - - -
17/02:30am - - - - - NNW 2 6 1 3 - - -
17/02:00am - - - - - NNW 7 11 4 6 - - -
17/01:30am - - - - - NNE 4 11 2 6 - - -
17/01:00am - - - - - NNE 6 11 3 6 - - -
17/12:30am - - - - - NNE 9 15 5 8 - - -
17/12:00am - - - - - NNE 7 11 4 6 - - -
 
Date/Time
EST
Temp
°C
App
Temp
°C
Dew
Point
Rel
Hum
%
Delta-T
°C
Wind Press
QNH
hPa
Press
MSL
hPa
Rain
since 9 am
mm
Dir
 
Spd
km/h
Gust
km/h
Spd
kts
Gust
kts
16/11:30pm - - - - - N 7 11 4 6 - - -
16/11:00pm - - - - - NE 7 11 4 6 - - -
16/10:30pm - - - - - NNE 7 11 4 6 - - -
16/10:00pm - - - - - NE 9 13 5 7 - - -
16/09:30pm - - - - - NNE 11 17 6 9 - - -
16/09:00pm - - - - - NNE 11 15 6 8 - - -
16/08:30pm - - - - - NNE 11 15 6 8 - - -
16/08:00pm - - - - - NNE 7 11 4 6 - - -
16/07:30pm - - - - - NNE 6 13 3 7 - - -
16/07:00pm - - - - - NNE 6 7 3 4 - - -
16/06:30pm - - - - - NNE 7 9 4 5 - - -
16/06:00pm - - - - - N 7 9 4 5 - - -
16/05:30pm - - - - - N 6 6 3 3 - - -
16/05:00pm - - - - - N 2 6 1 3 - - -
16/04:30pm - - - - - NE 6 9 3 5 - - -
16/04:00pm - - - - - NNE 7 11 4 6 - - -
16/03:30pm - - - - - ENE 7 11 4 6 - - -
16/03:00pm - - - - - NNE 9 15 5 8 - - -
16/02:30pm - - - - - E 15 20 8 11 - - -
16/02:00pm - - - - - E 15 22 8 12 - - -
16/01:30pm - - - - - E 17 24 9 13 - - -
16/01:00pm - - - - - NE 11 17 6 9 - - -
16/12:30pm - - - - - NE 13 19 7 10 - - -
16/12:00pm - - - - - N 11 20 6 11 - - -
16/11:30am - - - - - ENE 11 17 6 9 - - -
16/11:00am - - - - - E 15 20 8 11 - - -

Other Formats:

Comma delimited format used in spreadsheet applications
http://www.bom.gov.au/fwo/IDN60801/IDN60801.95995.axf

JavaScript Object Notation format (JSON) in row-major order
http://www.bom.gov.au/fwo/IDN60801/IDN60801.95995.json